Airfield :
LOGIN :

Register | Disclaimer

   EN    FR    IT 

 










Legend :    VFR   Marginal VFR   IFR   Intensive IFR   Very Intensive IFR
Visi :
Ceiling :
>= 8 km
>= 3000ft
5 to 8 km
1000 to 3000 ft
1500m to 5 km
500 to 1000 ft
800 to 1500m
200 to 500 ft
< 800m
< 200 ft
Symbols :   Thunderstorms  Fog  Heavy snow  Heavy precipitations  Wind > 20 kt
SIGMETs :     Misc.  Thunderstorms  Icing  Turbulence  Mountain Waves  Volcanic Ashes







- Airport Elevation : 404 ft
- IATA code : WRO


EPWR - Wroclaw

CURRENT METAR :
  • 211330Z 28011KT 9999 -RA BKN026 07/04 Q1023

EXPIRED METARs :
  • 211300Z 29015KT 9999 -RA BKN020 08/05 Q1023
  • 211230Z 27011KT 9999 -RA FEW030 09/04 Q1023
  • 211200Z 28009KT 9999 -RA SCT033 09/04 Q1023
  • 211130Z 28007KT 9999 -RA SCT033 08/04 Q1023
  • 211100Z 29006KT 9999 -RA SCT047 08/04 Q1023

TAF TAF EPWR
Valid from the 21 at 12:00 until the 22 at 12:00 UTC


211130Z 2112/2212 28006KT 9999 -RA BKN046
TEMPO 2112/2118 4000 RA BR BKN014
BECMG 2118/2121 4000 RA BR BKN012
TEMPO 2120/2203 30015G25KT BKN009
BECMG 2203/2206 06015G25KT
BECMG 2206/2209 SCT018
No reported NOTAMs for that airfield.



MET'MAP, your aeronautical weather chart ! - Copyright ORBIFLY December 2007 - Disclaimer

ORBIFLY MET'MAP TEAM :

Programming & Development : Alexandra Zaïnal
Concept & Development : Baudouin d'Aumeries
Co-Development & Prog : Marc-Olivier Méhu
Technical & hardware support : Manuel Goepfert

Contact : metmap@orbifly.com




SOURCES & CREDITS :

   NOAA